sensor_id;sensor_type;location;lat;lon;timestamp;pressure;altitude;pressure_sealevel;temperature;humidity
32735;BME280;19112;51.076;3.706;2024-03-02T00:00:30;99585.66;;;9.65;90.63
32735;BME280;19112;51.076;3.706;2024-03-02T00:02:57;98727.13;;;4.68;89.73
32735;BME280;19112;51.076;3.706;2024-03-02T00:05:28;99142.09;;;6.81;90.33
32735;BME280;19112;51.076;3.706;2024-03-02T00:07:55;98878.41;;;4.91;89.65
32735;BME280;19112;51.076;3.706;2024-03-02T00:10:32;98935.91;;;5.41;90.02
32735;BME280;19112;51.076;3.706;2024-03-02T00:13:06;98792.88;;;4.64;90.13
32735;BME280;19112;51.076;3.706;2024-03-02T00:15:47;99622.34;;;9.67;91.95
32735;BME280;19112;51.076;3.706;2024-03-02T00:18:32;98907.72;;;5.61;91.33
32735;BME280;19112;51.076;3.706;2024-03-02T00:21:00;99180.78;;;7.02;91.28
32735;BME280;19112;51.076;3.706;2024-03-02T00:23:35;98341.25;;;1.98;91.46
32735;BME280;19112;51.076;3.706;2024-03-02T00:26:02;99641.56;;;9.67;91.86
32735;BME280;19112;51.076;3.706;2024-03-02T00:28:34;99262.28;;;7.30;91.48
32735;BME280;19112;51.076;3.706;2024-03-02T00:31:07;99607.50;;;9.66;91.28
32735;BME280;19112;51.076;3.706;2024-03-02T00:33:36;99659.31;;;9.32;91.27
32735;BME280;19112;51.076;3.706;2024-03-02T00:36:03;99595.44;;;9.26;89.99
32735;BME280;19112;51.076;3.706;2024-03-02T00:38:34;99545.13;;;8.93;89.92
32735;BME280;19112;51.076;3.706;2024-03-02T00:41:07;98716.81;;;4.32;90.70
32735;BME280;19112;51.076;3.706;2024-03-02T00:46:06;99684.97;;;9.52;90.87
32735;BME280;19112;51.076;3.706;2024-03-02T00:48:33;99263.25;;;7.37;91.99
32735;BME280;19112;51.076;3.706;2024-03-02T00:51:03;99516.19;;;8.86;92.66
32735;BME280;19112;51.076;3.706;2024-03-02T00:53:32;99470.38;;;8.61;92.63
32735;BME280;19112;51.076;3.706;2024-03-02T00:55:59;98511.16;;;2.62;91.24
32735;BME280;19112;51.076;3.706;2024-03-02T00:58:25;99637.81;;;9.52;92.49
32735;BME280;19112;51.076;3.706;2024-03-02T01:00:51;99426.19;;;8.31;92.25
32735;BME280;19112;51.076;3.706;2024-03-02T01:03:17;98954.19;;;5.44;91.24
32735;BME280;19112;51.076;3.706;2024-03-02T01:05:43;98778.00;;;4.22;90.80
32735;BME280;19112;51.076;3.706;2024-03-02T01:08:12;99208.88;;;6.73;91.11
32735;BME280;19112;51.076;3.706;2024-03-02T01:10:39;98973.75;;;5.28;90.30
32735;BME280;19112;51.076;3.706;2024-03-02T01:13:07;98626.03;;;3.62;89.31
32735;BME280;19112;51.076;3.706;2024-03-02T01:15:34;98814.53;;;4.30;89.89
32735;BME280;19112;51.076;3.706;2024-03-02T01:18:00;99546.22;;;8.20;90.28
32735;BME280;19112;51.076;3.706;2024-03-02T01:20:28;99453.72;;;7.71;90.37
32735;BME280;19112;51.076;3.706;2024-03-02T01:22:56;98548.84;;;2.83;90.21
32735;BME280;19112;51.076;3.706;2024-03-02T01:25:22;99134.97;;;5.93;91.08
32735;BME280;19112;51.076;3.706;2024-03-02T01:27:47;99025.50;;;4.83;90.50
32735;BME280;19112;51.076;3.706;2024-03-02T01:30:13;98697.16;;;3.07;90.08
32735;BME280;19112;51.076;3.706;2024-03-02T01:32:39;99422.59;;;7.41;90.12
32735;BME280;19112;51.076;3.706;2024-03-02T01:35:06;99092.69;;;5.34;90.62
32735;BME280;19112;51.076;3.706;2024-03-02T01:37:33;99471.19;;;7.74;89.77
32735;BME280;19112;51.076;3.706;2024-03-02T01:39:59;99247.56;;;6.55;90.10
32735;BME280;19112;51.076;3.706;2024-03-02T01:42:24;98904.81;;;4.38;91.32
32735;BME280;19112;51.076;3.706;2024-03-02T01:44:51;99158.94;;;5.81;91.00
32735;BME280;19112;51.076;3.706;2024-03-02T01:47:17;99079.34;;;5.55;90.63
32735;BME280;19112;51.076;3.706;2024-03-02T01:49:42;99480.06;;;7.82;91.47
32735;BME280;19112;51.076;3.706;2024-03-02T01:52:08;98798.72;;;3.86;89.92
32735;BME280;19112;51.076;3.706;2024-03-02T01:54:34;99472.69;;;7.63;91.22
32735;BME280;19112;51.076;3.706;2024-03-02T01:57:00;99283.28;;;6.59;90.54
32735;BME280;19112;51.076;3.706;2024-03-02T01:59:29;99124.13;;;5.43;91.66
32735;BME280;19112;51.076;3.706;2024-03-02T02:01:55;98864.91;;;3.72;90.99
32735;BME280;19112;51.076;3.706;2024-03-02T02:04:20;99380.13;;;7.11;91.76
32735;BME280;19112;51.076;3.706;2024-03-02T02:06:52;99417.03;;;6.90;91.75
32735;BME280;19112;51.076;3.706;2024-03-02T02:09:18;99425.81;;;6.93;91.67
32735;BME280;19112;51.076;3.706;2024-03-02T02:11:44;99246.25;;;6.35;91.60
32735;BME280;19112;51.076;3.706;2024-03-02T02:14:10;99348.78;;;6.37;91.08
32735;BME280;19112;51.076;3.706;2024-03-02T02:16:37;99176.81;;;5.67;90.89
32735;BME280;19112;51.076;3.706;2024-03-02T02:19:02;98803.06;;;3.55;91.11
32735;BME280;19112;51.076;3.706;2024-03-02T02:21:28;99053.19;;;4.81;90.38
32735;BME280;19112;51.076;3.706;2024-03-02T02:23:54;99388.75;;;7.08;90.72
32735;BME280;19112;51.076;3.706;2024-03-02T02:26:22;98959.94;;;4.60;90.40
32735;BME280;19112;51.076;3.706;2024-03-02T02:28:49;99196.97;;;6.09;90.44
32735;BME280;19112;51.076;3.706;2024-03-02T02:31:15;98998.03;;;4.92;89.74
32735;BME280;19112;51.076;3.706;2024-03-02T02:33:41;99033.56;;;4.60;90.42
32735;BME280;19112;51.076;3.706;2024-03-02T02:36:07;98888.97;;;4.29;88.86
32735;BME280;19112;51.076;3.706;2024-03-02T02:38:36;98946.13;;;4.62;89.07
32735;BME280;19112;51.076;3.706;2024-03-02T02:41:03;99284.53;;;6.02;90.03
32735;BME280;19112;51.076;3.706;2024-03-02T02:43:29;99144.34;;;5.20;90.25
32735;BME280;19112;51.076;3.706;2024-03-02T02:45:57;99418.75;;;7.25;90.40
32735;BME280;19112;51.076;3.706;2024-03-02T02:48:23;99606.16;;;7.73;90.04
32735;BME280;19112;51.076;3.706;2024-03-02T02:50:49;99422.63;;;6.70;89.52
32735;BME280;19112;51.076;3.706;2024-03-02T02:53:18;98827.75;;;3.41;88.53
32735;BME280;19112;51.076;3.706;2024-03-02T02:55:46;99324.34;;;6.68;88.74
32735;BME280;19112;51.076;3.706;2024-03-02T02:58:15;98676.72;;;2.86;88.82
32735;BME280;19112;51.076;3.706;2024-03-02T03:00:40;99392.28;;;6.74;90.12
32735;BME280;19112;51.076;3.706;2024-03-02T03:03:09;98975.66;;;4.66;91.22
32735;BME280;19112;51.076;3.706;2024-03-02T03:05:41;99639.03;;;8.37;91.23
32735;BME280;19112;51.076;3.706;2024-03-02T03:08:07;99220.22;;;5.68;91.07
32735;BME280;19112;51.076;3.706;2024-03-02T03:10:40;98843.88;;;3.61;90.96
32735;BME280;19112;51.076;3.706;2024-03-02T03:13:09;98689.13;;;2.67;90.00
32735;BME280;19112;51.076;3.706;2024-03-02T03:15:38;99180.72;;;5.85;89.57
32735;BME280;19112;51.076;3.706;2024-03-02T03:18:10;99469.09;;;7.21;89.10
32735;BME280;19112;51.076;3.706;2024-03-02T03:20:36;99341.13;;;6.79;88.83
32735;BME280;19112;51.076;3.706;2024-03-02T03:23:08;99712.19;;;8.74;90.01
32735;BME280;19112;51.076;3.706;2024-03-02T03:25:37;99372.03;;;6.98;89.30
32735;BME280;19112;51.076;3.706;2024-03-02T03:28:09;98809.69;;;3.44;89.23
32735;BME280;19112;51.076;3.706;2024-03-02T03:30:40;99595.69;;;7.73;89.43
32735;BME280;19112;51.076;3.706;2024-03-02T03:33:06;99278.41;;;6.37;88.92
32735;BME280;19112;51.076;3.706;2024-03-02T03:35:32;98762.50;;;3.57;88.41
32735;BME280;19112;51.076;3.706;2024-03-02T03:37:58;99385.25;;;7.06;88.92
32735;BME280;19112;51.076;3.706;2024-03-02T03:40:27;99669.19;;;8.61;89.01
32735;BME280;19112;51.076;3.706;2024-03-02T03:42:53;98811.53;;;3.48;87.79
32735;BME280;19112;51.076;3.706;2024-03-02T03:45:19;98575.38;;;2.44;87.76
32735;BME280;19112;51.076;3.706;2024-03-02T03:47:45;99695.13;;;8.52;88.21
32735;BME280;19112;51.076;3.706;2024-03-02T03:50:11;99299.41;;;6.43;87.33
32735;BME280;19112;51.076;3.706;2024-03-02T03:52:38;99133.66;;;5.42;87.20
32735;BME280;19112;51.076;3.706;2024-03-02T03:55:04;99694.34;;;8.56;88.31
32735;BME280;19112;51.076;3.706;2024-03-02T03:57:30;99178.75;;;5.41;87.78
32735;BME280;19112;51.076;3.706;2024-03-02T03:59:56;99320.97;;;6.72;88.79
32735;BME280;19112;51.076;3.706;2024-03-02T04:02:25;98605.34;;;2.66;88.13
32735;BME280;19112;51.076;3.706;2024-03-02T04:04:53;99347.44;;;6.87;88.07
32735;BME280;19112;51.076;3.706;2024-03-02T04:07:20;99564.03;;;7.99;88.03
32735;BME280;19112;51.076;3.706;2024-03-02T04:09:49;99272.44;;;6.41;87.77
32735;BME280;19112;51.076;3.706;2024-03-02T04:12:16;98746.28;;;3.33;87.77
32735;BME280;19112;51.076;3.706;2024-03-02T04:14:43;99656.47;;;8.37;88.66
32735;BME280;19112;51.076;3.706;2024-03-02T04:17:08;99635.44;;;8.35;87.93
32735;BME280;19112;51.076;3.706;2024-03-02T04:19:37;98694.41;;;2.71;87.83
32735;BME280;19112;51.076;3.706;2024-03-02T04:22:03;98884.94;;;3.76;88.36
32735;BME280;19112;51.076;3.706;2024-03-02T04:24:29;99427.78;;;6.67;90.04
32735;BME280;19112;51.076;3.706;2024-03-02T04:26:55;99156.22;;;5.10;89.04
32735;BME280;19112;51.076;3.706;2024-03-02T04:29:21;99345.03;;;6.25;88.51
32735;BME280;19112;51.076;3.706;2024-03-02T04:31:47;99251.47;;;5.68;88.56
32735;BME280;19112;51.076;3.706;2024-03-02T04:34:13;99423.66;;;7.13;88.99
32735;BME280;19112;51.076;3.706;2024-03-02T04:36:38;99260.50;;;6.14;88.92
32735;BME280;19112;51.076;3.706;2024-03-02T04:39:04;98692.72;;;2.72;87.93
32735;BME280;19112;51.076;3.706;2024-03-02T04:41:30;99037.34;;;4.41;88.87
32735;BME280;19112;51.076;3.706;2024-03-02T04:43:56;99481.84;;;7.45;88.13
32735;BME280;19112;51.076;3.706;2024-03-02T04:46:22;98934.69;;;4.23;88.69
32735;BME280;19112;51.076;3.706;2024-03-02T04:48:50;99565.13;;;8.07;89.19
32735;BME280;19112;51.076;3.706;2024-03-02T04:51:27;98862.00;;;4.24;87.82
32735;BME280;19112;51.076;3.706;2024-03-02T04:53:53;98964.22;;;4.26;87.95
32735;BME280;19112;51.076;3.706;2024-03-02T04:56:19;99255.16;;;5.76;87.59
32735;BME280;19112;51.076;3.706;2024-03-02T04:58:59;99704.63;;;8.87;88.00
32735;BME280;19112;51.076;3.706;2024-03-02T05:01:26;99445.84;;;7.30;87.32
32735;BME280;19112;51.076;3.706;2024-03-02T05:03:55;99266.56;;;6.13;87.58
32735;BME280;19112;51.076;3.706;2024-03-02T05:06:25;99432.91;;;6.99;86.96
32735;BME280;19112;51.076;3.706;2024-03-02T05:08:52;99051.78;;;4.62;86.52
32735;BME280;19112;51.076;3.706;2024-03-02T05:11:17;99390.22;;;6.97;87.53
32735;BME280;19112;51.076;3.706;2024-03-02T05:14:05;98990.84;;;4.19;87.16
32735;BME280;19112;51.076;3.706;2024-03-02T05:16:37;99366.88;;;6.30;88.09
32735;BME280;19112;51.076;3.706;2024-03-02T05:19:07;99602.44;;;7.65;86.84
32735;BME280;19112;51.076;3.706;2024-03-02T05:21:34;99564.66;;;7.16;86.23
32735;BME280;19112;51.076;3.706;2024-03-02T05:24:00;99174.84;;;5.59;86.28
32735;BME280;19112;51.076;3.706;2024-03-02T05:26:26;99727.66;;;8.63;86.54
32735;BME280;19112;51.076;3.706;2024-03-02T05:28:52;99029.53;;;4.40;86.29
32735;BME280;19112;51.076;3.706;2024-03-02T05:31:21;98974.91;;;3.77;86.15
32735;BME280;19112;51.076;3.706;2024-03-02T05:33:47;98855.44;;;3.42;86.39
32735;BME280;19112;51.076;3.706;2024-03-02T05:36:14;99212.03;;;4.91;85.82
32735;BME280;19112;51.076;3.706;2024-03-02T05:38:41;99426.94;;;6.68;86.16
32735;BME280;19112;51.076;3.706;2024-03-02T05:41:06;99074.78;;;4.18;85.94
32735;BME280;19112;51.076;3.706;2024-03-02T05:43:32;99293.00;;;5.95;86.12
32735;BME280;19112;51.076;3.706;2024-03-02T05:46:00;99391.78;;;6.54;86.01
32735;BME280;19112;51.076;3.706;2024-03-02T05:48:28;99848.50;;;8.17;86.52
32735;BME280;19112;51.076;3.706;2024-03-02T05:50:57;98855.41;;;3.12;85.37
32735;BME280;19112;51.076;3.706;2024-03-02T05:53:23;99616.16;;;7.23;85.66
32735;BME280;19112;51.076;3.706;2024-03-02T05:55:52;99143.81;;;4.40;85.49
32735;BME280;19112;51.076;3.706;2024-03-02T05:58:23;99522.47;;;6.98;86.39
32735;BME280;19112;51.076;3.706;2024-03-02T06:01:19;99426.81;;;6.30;86.92
32735;BME280;19112;51.076;3.706;2024-03-02T06:03:47;99251.03;;;5.21;86.31
32735;BME280;19112;51.076;3.706;2024-03-02T06:06:14;99304.41;;;5.69;86.24
32735;BME280;19112;51.076;3.706;2024-03-02T06:08:41;98690.63;;;1.76;85.37
32735;BME280;19112;51.076;3.706;2024-03-02T06:11:07;98737.34;;;2.34;86.47
32735;BME280;19112;51.076;3.706;2024-03-02T06:13:33;99406.94;;;6.34;86.36
32735;BME280;19112;51.076;3.706;2024-03-02T06:15:58;99411.22;;;5.72;86.22
32735;BME280;19112;51.076;3.706;2024-03-02T06:18:24;99466.50;;;6.53;85.38
32735;BME280;19112;51.076;3.706;2024-03-02T06:20:50;98806.88;;;2.24;84.51
32735;BME280;19112;51.076;3.706;2024-03-02T06:23:16;99390.47;;;6.03;84.67
32735;BME280;19112;51.076;3.706;2024-03-02T06:25:42;99221.44;;;4.86;85.04
32735;BME280;19112;51.076;3.706;2024-03-02T06:28:08;99849.78;;;7.99;85.76
32735;BME280;19112;51.076;3.706;2024-03-02T06:30:34;98783.50;;;2.49;83.95
32735;BME280;19112;51.076;3.706;2024-03-02T06:33:00;99631.91;;;6.93;84.96
32735;BME280;19112;51.076;3.706;2024-03-02T06:35:26;99262.81;;;5.09;85.26
32735;BME280;19112;51.076;3.706;2024-03-02T06:37:52;99523.28;;;6.02;86.35
32735;BME280;19112;51.076;3.706;2024-03-02T06:40:18;99358.34;;;5.74;86.96
32735;BME280;19112;51.076;3.706;2024-03-02T06:42:44;99012.00;;;3.46;85.73
32735;BME280;19112;51.076;3.706;2024-03-02T06:45:11;99507.91;;;6.43;85.79
32735;BME280;19112;51.076;3.706;2024-03-02T06:47:37;99769.53;;;7.95;87.31
32735;BME280;19112;51.076;3.706;2024-03-02T06:50:03;99409.78;;;5.53;85.74
32735;BME280;19112;51.076;3.706;2024-03-02T06:52:30;98952.81;;;3.32;86.53
32735;BME280;19112;51.076;3.706;2024-03-02T06:54:59;99334.59;;;5.62;86.10
32735;BME280;19112;51.076;3.706;2024-03-02T06:57:27;99568.63;;;7.02;86.57
32735;BME280;19112;51.076;3.706;2024-03-02T06:59:54;99294.19;;;4.85;86.68
32735;BME280;19112;51.076;3.706;2024-03-02T07:02:27;98747.72;;;2.36;86.53
32735;BME280;19112;51.076;3.706;2024-03-02T07:04:55;99513.47;;;6.23;87.45
32735;BME280;19112;51.076;3.706;2024-03-02T07:07:22;99796.97;;;8.11;88.28
32735;BME280;19112;51.076;3.706;2024-03-02T07:09:48;99643.94;;;7.53;87.76
32735;BME280;19112;51.076;3.706;2024-03-02T07:12:17;99245.84;;;4.91;86.85
32735;BME280;19112;51.076;3.706;2024-03-02T07:14:44;98915.16;;;3.17;86.24
32735;BME280;19112;51.076;3.706;2024-03-02T07:17:31;99404.59;;;6.45;87.12
32735;BME280;19112;51.076;3.706;2024-03-02T07:19:58;99303.44;;;5.65;87.19
32735;BME280;19112;51.076;3.706;2024-03-02T07:22:24;98938.91;;;3.57;85.61
32735;BME280;19112;51.076;3.706;2024-03-02T07:24:50;99154.28;;;4.71;87.13
32735;BME280;19112;51.076;3.706;2024-03-02T07:27:19;98861.88;;;2.98;85.92
32735;BME280;19112;51.076;3.706;2024-03-02T07:29:48;98634.06;;;2.15;85.99
32735;BME280;19112;51.076;3.706;2024-03-02T07:32:17;98331.75;;;0.23;86.22
32735;BME280;19112;51.076;3.706;2024-03-02T07:34:44;99425.00;;;6.61;87.42
32735;BME280;19112;51.076;3.706;2024-03-02T07:37:10;98506.69;;;1.11;87.62
32735;BME280;19112;51.076;3.706;2024-03-02T07:39:40;98759.09;;;2.98;87.37
32735;BME280;19112;51.076;3.706;2024-03-02T07:42:07;99648.50;;;8.34;88.45
32735;BME280;19112;51.076;3.706;2024-03-02T07:44:35;99593.88;;;8.08;88.22
32735;BME280;19112;51.076;3.706;2024-03-02T07:47:01;99047.75;;;4.11;87.67
32735;BME280;19112;51.076;3.706;2024-03-02T07:49:33;98889.72;;;3.92;88.81
32735;BME280;19112;51.076;3.706;2024-03-02T07:52:00;99819.75;;;8.86;88.58
32735;BME280;19112;51.076;3.706;2024-03-02T07:54:26;99783.22;;;8.90;88.98
32735;BME280;19112;51.076;3.706;2024-03-02T07:56:52;98731.81;;;2.81;88.43
32735;BME280;19112;51.076;3.706;2024-03-02T07:59:20;98571.97;;;2.15;86.78
32735;BME280;19112;51.076;3.706;2024-03-02T08:01:49;98780.16;;;3.71;87.14
32735;BME280;19112;51.076;3.706;2024-03-02T08:04:16;98834.50;;;3.98;87.65
32735;BME280;19112;51.076;3.706;2024-03-02T08:06:42;99593.75;;;8.02;87.44
32735;BME280;19112;51.076;3.706;2024-03-02T08:09:07;99117.78;;;5.32;87.60
32735;BME280;19112;51.076;3.706;2024-03-02T08:11:36;99692.84;;;8.29;86.97
32735;BME280;19112;51.076;3.706;2024-03-02T08:14:05;99247.94;;;5.98;88.08
32735;BME280;19112;51.076;3.706;2024-03-02T08:16:31;99453.44;;;7.20;88.87
32735;BME280;19112;51.076;3.706;2024-03-02T08:18:59;99181.63;;;5.52;88.72
32735;BME280;19112;51.076;3.706;2024-03-02T08:21:25;98968.44;;;4.89;88.57
32735;BME280;19112;51.076;3.706;2024-03-02T08:23:52;98901.25;;;4.35;87.84
32735;BME280;19112;51.076;3.706;2024-03-02T08:26:19;99789.63;;;9.44;87.65
32735;BME280;19112;51.076;3.706;2024-03-02T08:28:45;98899.63;;;4.38;87.37
32735;BME280;19112;51.076;3.706;2024-03-02T08:31:11;99707.16;;;9.25;88.83
32735;BME280;19112;51.076;3.706;2024-03-02T08:33:37;99419.28;;;7.11;86.57
32735;BME280;19112;51.076;3.706;2024-03-02T08:36:03;99389.16;;;7.66;86.80
32735;BME280;19112;51.076;3.706;2024-03-02T08:38:29;98982.38;;;5.25;86.46
32735;BME280;19112;51.076;3.706;2024-03-02T08:40:55;99606.13;;;8.89;88.50
32735;BME280;19112;51.076;3.706;2024-03-02T08:43:21;99004.03;;;5.24;87.71
32735;BME280;19112;51.076;3.706;2024-03-02T08:45:48;98544.13;;;3.01;87.71
32735;BME280;19112;51.076;3.706;2024-03-02T08:48:14;99792.34;;;9.95;88.87
32735;BME280;19112;51.076;3.706;2024-03-02T08:50:40;98942.19;;;5.50;88.43
32735;BME280;19112;51.076;3.706;2024-03-02T08:53:09;99069.13;;;6.00;88.11
32735;BME280;19112;51.076;3.706;2024-03-02T08:55:37;99861.78;;;10.16;88.97
32735;BME280;19112;51.076;3.706;2024-03-02T08:58:04;99763.97;;;10.21;88.58
32735;BME280;19112;51.076;3.706;2024-03-02T09:00:31;98746.97;;;3.92;87.04
32735;BME280;19112;51.076;3.706;2024-03-02T09:03:00;99251.47;;;6.74;87.32
32735;BME280;19112;51.076;3.706;2024-03-02T09:05:28;99258.63;;;7.23;87.84
32735;BME280;19112;51.076;3.706;2024-03-02T09:07:55;99455.44;;;8.54;89.54
32735;BME280;19112;51.076;3.706;2024-03-02T09:10:21;99467.75;;;8.61;88.79
32735;BME280;19112;51.076;3.706;2024-03-02T09:12:47;99507.41;;;8.82;90.26
32735;BME280;19112;51.076;3.706;2024-03-02T09:15:13;99742.38;;;10.94;91.66
32735;BME280;19112;51.076;3.706;2024-03-02T09:17:39;99093.44;;;7.27;91.14
32735;BME280;19112;51.076;3.706;2024-03-02T09:20:06;99730.59;;;11.33;90.62
32735;BME280;19112;51.076;3.706;2024-03-02T09:22:32;98999.88;;;6.99;89.10
32735;BME280;19112;51.076;3.706;2024-03-02T09:24:58;99471.84;;;10.12;88.12
32735;BME280;19112;51.076;3.706;2024-03-02T09:27:26;98909.78;;;6.66;89.27
32735;BME280;19112;51.076;3.706;2024-03-02T09:29:52;99093.22;;;7.67;88.45
32735;BME280;19112;51.076;3.706;2024-03-02T09:32:18;99742.66;;;11.90;87.06
32735;BME280;19112;51.076;3.706;2024-03-02T09:34:44;99683.59;;;11.57;90.26
32735;BME280;19112;51.076;3.706;2024-03-02T09:37:10;99543.69;;;10.94;90.54
32735;BME280;19112;51.076;3.706;2024-03-02T09:39:36;99538.38;;;10.88;86.73
32735;BME280;19112;51.076;3.706;2024-03-02T09:42:04;99032.00;;;8.07;83.32
32735;BME280;19112;51.076;3.706;2024-03-02T09:44:34;99248.66;;;9.80;84.13
32735;BME280;19112;51.076;3.706;2024-03-02T09:47:03;99422.88;;;10.91;85.48
32735;BME280;19112;51.076;3.706;2024-03-02T09:49:29;98718.25;;;6.43;79.51
32735;BME280;19112;51.076;3.706;2024-03-02T09:51:55;99456.19;;;10.95;83.79
32735;BME280;19112;51.076;3.706;2024-03-02T09:54:22;99759.84;;;12.47;78.13
32735;BME280;19112;51.076;3.706;2024-03-02T09:56:50;99489.75;;;11.30;80.88
32735;BME280;19112;51.076;3.706;2024-03-02T09:59:16;98929.34;;;7.50;82.63
32735;BME280;19112;51.076;3.706;2024-03-02T10:01:57;98799.28;;;7.17;82.31
32735;BME280;19112;51.076;3.706;2024-03-02T10:04:26;99676.41;;;12.37;83.19
32735;BME280;19112;51.076;3.706;2024-03-02T10:07:09;99731.00;;;12.67;82.71
32735;BME280;19112;51.076;3.706;2024-03-02T10:09:36;99153.81;;;9.26;85.14
32735;BME280;19112;51.076;3.706;2024-03-02T10:12:07;98514.94;;;5.73;84.37
32735;BME280;19112;51.076;3.706;2024-03-02T10:14:34;99485.25;;;11.14;83.75
32735;BME280;19112;51.076;3.706;2024-03-02T10:17:08;99222.56;;;9.90;82.55
32735;BME280;19112;51.076;3.706;2024-03-02T10:19:35;99311.50;;;10.59;79.59
32735;BME280;19112;51.076;3.706;2024-03-02T10:22:04;99472.16;;;11.23;79.90
32735;BME280;19112;51.076;3.706;2024-03-02T10:24:44;99529.22;;;11.36;76.30
32735;BME280;19112;51.076;3.706;2024-03-02T10:27:28;98844.44;;;7.80;79.27
32735;BME280;19112;51.076;3.706;2024-03-02T10:29:55;99441.34;;;10.99;81.08
32735;BME280;19112;51.076;3.706;2024-03-02T10:32:22;99405.94;;;10.56;78.18
32735;BME280;19112;51.076;3.706;2024-03-02T10:34:50;99363.16;;;10.63;78.75
32735;BME280;19112;51.076;3.706;2024-03-02T10:37:16;99370.13;;;10.61;78.62
32735;BME280;19112;51.076;3.706;2024-03-02T10:39:43;99139.38;;;9.68;78.72
32735;BME280;19112;51.076;3.706;2024-03-02T10:42:12;99087.69;;;9.47;76.08
32735;BME280;19112;51.076;3.706;2024-03-02T10:44:38;99556.06;;;12.11;79.61
32735;BME280;19112;51.076;3.706;2024-03-02T10:47:05;99605.50;;;12.72;82.14
32735;BME280;19112;51.076;3.706;2024-03-02T10:49:32;99273.16;;;10.76;74.90
32735;BME280;19112;51.076;3.706;2024-03-02T10:52:04;98786.44;;;8.13;76.33
32735;BME280;19112;51.076;3.706;2024-03-02T10:54:32;98936.69;;;9.52;71.76
32735;BME280;19112;51.076;3.706;2024-03-02T10:57:04;99458.06;;;12.81;72.97
32735;BME280;19112;51.076;3.706;2024-03-02T10:59:34;99278.88;;;11.77;69.94
32735;BME280;19112;51.076;3.706;2024-03-02T11:02:03;99194.63;;;11.22;71.48
32735;BME280;19112;51.076;3.706;2024-03-02T11:04:31;99134.19;;;11.14;73.07
32735;BME280;19112;51.076;3.706;2024-03-02T11:07:12;99173.69;;;11.55;71.00
32735;BME280;19112;51.076;3.706;2024-03-02T11:09:49;99129.91;;;11.45;71.76
32735;BME280;19112;51.076;3.706;2024-03-02T11:12:39;99231.66;;;12.26;73.35
32735;BME280;19112;51.076;3.706;2024-03-02T11:15:18;98961.66;;;10.63;68.87
32735;BME280;19112;51.076;3.706;2024-03-02T11:17:49;99472.13;;;13.87;66.69
32735;BME280;19112;51.076;3.706;2024-03-02T11:20:15;99488.00;;;13.53;66.57
32735;BME280;19112;51.076;3.706;2024-03-02T11:22:41;99287.75;;;12.95;65.53
32735;BME280;19112;51.076;3.706;2024-03-02T11:25:27;98977.50;;;11.13;64.72
32735;BME280;19112;51.076;3.706;2024-03-02T11:33:01;98917.97;;;11.05;68.10
32735;BME280;19112;51.076;3.706;2024-03-02T11:35:43;99238.66;;;12.70;64.26
32735;BME280;19112;51.076;3.706;2024-03-02T11:38:12;99675.91;;;15.24;66.24
32735;BME280;19112;51.076;3.706;2024-03-02T11:40:40;99452.69;;;14.17;64.55
32735;BME280;19112;51.076;3.706;2024-03-02T11:43:08;99684.59;;;15.42;65.00
32735;BME280;19112;51.076;3.706;2024-03-02T11:45:37;99557.22;;;14.64;65.79
32735;BME280;19112;51.076;3.706;2024-03-02T11:48:10;98829.59;;;11.00;60.67
32735;BME280;19112;51.076;3.706;2024-03-02T11:50:46;99004.56;;;12.09;60.87
32735;BME280;19112;51.076;3.706;2024-03-02T11:53:16;99135.91;;;12.90;58.51
32735;BME280;19112;51.076;3.706;2024-03-02T11:55:46;99487.63;;;14.70;63.42
32735;BME280;19112;51.076;3.706;2024-03-02T11:58:13;98950.34;;;11.40;59.07
32735;BME280;19112;51.076;3.706;2024-03-02T12:00:43;99457.56;;;14.93;61.60
32735;BME280;19112;51.076;3.706;2024-03-02T12:03:13;99387.59;;;14.05;64.35
32735;BME280;19112;51.076;3.706;2024-03-02T12:05:42;98854.97;;;10.94;60.87
32735;BME280;19112;51.076;3.706;2024-03-02T12:08:09;99280.56;;;13.52;64.69
32735;BME280;19112;51.076;3.706;2024-03-02T12:10:38;99255.16;;;13.39;65.42
32735;BME280;19112;51.076;3.706;2024-03-02T12:13:07;99188.53;;;13.00;61.64
32735;BME280;19112;51.076;3.706;2024-03-02T12:15:37;99357.72;;;14.00;61.67
32735;BME280;19112;51.076;3.706;2024-03-02T12:18:04;99126.34;;;12.55;61.57
32735;BME280;19112;51.076;3.706;2024-03-02T12:20:32;99450.69;;;14.66;61.89
32735;BME280;19112;51.076;3.706;2024-03-02T12:23:01;99300.59;;;13.96;65.56
32735;BME280;19112;51.076;3.706;2024-03-02T12:25:28;99449.03;;;14.44;62.63
32735;BME280;19112;51.076;3.706;2024-03-02T12:27:57;99202.47;;;13.30;66.48
32735;BME280;19112;51.076;3.706;2024-03-02T12:30:30;99627.03;;;15.86;65.68
32735;BME280;19112;51.076;3.706;2024-03-02T12:32:57;99469.97;;;14.79;64.94
32735;BME280;19112;51.076;3.706;2024-03-02T12:35:24;99070.31;;;12.13;65.46
32735;BME280;19112;51.076;3.706;2024-03-02T12:37:52;98792.00;;;10.68;63.70
32735;BME280;19112;51.076;3.706;2024-03-02T12:40:19;99047.50;;;12.26;62.42
32735;BME280;19112;51.076;3.706;2024-03-02T12:42:46;99276.31;;;13.24;65.45
32735;BME280;19112;51.076;3.706;2024-03-02T12:45:13;98784.13;;;10.59;63.05
32735;BME280;19112;51.076;3.706;2024-03-02T12:47:41;99121.16;;;12.18;65.02
32735;BME280;19112;51.076;3.706;2024-03-02T12:50:08;99108.03;;;12.04;65.61
32735;BME280;19112;51.076;3.706;2024-03-02T12:52:35;99317.56;;;13.32;65.05
32735;BME280;19112;51.076;3.706;2024-03-02T12:55:05;99229.88;;;12.55;64.51
32735;BME280;19112;51.076;3.706;2024-03-02T12:57:34;99301.78;;;13.16;65.70
32735;BME280;19112;51.076;3.706;2024-03-02T13:02:41;99002.03;;;11.31;68.23
32735;BME280;19112;51.076;3.706;2024-03-02T13:05:08;98779.66;;;9.86;67.46
32735;BME280;19112;51.076;3.706;2024-03-02T13:07:38;99658.34;;;15.04;67.39
32735;BME280;19112;51.076;3.706;2024-03-02T13:10:05;99406.19;;;13.82;68.80
32735;BME280;19112;51.076;3.706;2024-03-02T13:12:36;98750.88;;;10.07;69.25
32735;BME280;19112;51.076;3.706;2024-03-02T13:15:04;98955.59;;;11.22;70.83
32735;BME280;19112;51.076;3.706;2024-03-02T13:17:34;99374.63;;;13.53;70.32
32735;BME280;19112;51.076;3.706;2024-03-02T13:20:01;98679.13;;;9.47;68.32
32735;BME280;19112;51.076;3.706;2024-03-02T13:22:26;98861.06;;;10.48;69.47